createdAt,value
2016-07-07T00:00:19.611Z,14.84
2016-07-07T00:01:19.635Z,14.89
2016-07-07T00:02:19.661Z,14.91
2016-07-07T00:03:19.664Z,14.88
2016-07-07T00:04:19.697Z,14.78
2016-07-07T00:05:19.698Z,14.84
2016-07-07T00:06:19.730Z,14.81
2016-07-07T00:07:19.749Z,14.84
2016-07-07T00:08:19.757Z,14.78
2016-07-07T00:09:19.773Z,14.81
2016-07-07T00:10:19.800Z,14.81
2016-07-07T00:11:19.815Z,14.82
2016-07-07T00:12:19.829Z,14.79
2016-07-07T00:13:19.845Z,14.82
2016-07-07T00:14:19.883Z,14.86
2016-07-07T00:15:19.887Z,14.91
2016-07-07T00:16:19.915Z,14.92
2016-07-07T00:17:19.921Z,14.85
2016-07-07T00:18:19.935Z,14.86
2016-07-07T00:19:19.962Z,14.85
2016-07-07T00:20:19.955Z,14.86
2016-07-07T00:21:20.373Z,14.85
2016-07-07T00:22:19.993Z,14.84
2016-07-07T00:23:20.031Z,14.88
2016-07-07T00:24:20.051Z,14.88
2016-07-07T00:25:20.068Z,14.86
2016-07-07T00:26:20.094Z,14.84
2016-07-07T00:27:20.100Z,14.89
2016-07-07T00:28:20.123Z,14.82
2016-07-07T00:29:20.153Z,14.88
2016-07-07T00:30:20.145Z,14.81
2016-07-07T00:31:20.168Z,14.85
2016-07-07T00:32:20.186Z,14.66
2016-07-07T00:33:20.205Z,14.81
2016-07-07T00:34:20.223Z,14.79
2016-07-07T00:35:20.262Z,14.77
2016-07-07T00:36:20.270Z,14.72
2016-07-07T00:37:20.295Z,14.73
2016-07-07T00:38:20.314Z,14.65
2016-07-07T00:39:20.329Z,14.62
2016-07-07T00:40:20.342Z,14.54
2016-07-07T00:41:20.371Z,14.63
2016-07-07T00:42:20.385Z,14.47
2016-07-07T00:43:20.403Z,14.58
2016-07-07T00:44:20.429Z,14.44
2016-07-07T00:45:20.440Z,14.55
2016-07-07T00:46:20.449Z,14.36
2016-07-07T00:47:20.463Z,14.41
2016-07-07T00:48:20.490Z,14.43
2016-07-07T00:49:20.510Z,14.3
2016-07-07T00:50:20.531Z,14.32
2016-07-07T00:51:20.532Z,14.26
2016-07-07T00:52:20.560Z,14.2
2016-07-07T00:53:20.578Z,14.2
2016-07-07T00:54:20.610Z,14.17
2016-07-07T00:55:20.601Z,14.22
2016-07-07T00:56:20.639Z,14.18
2016-07-07T00:57:20.642Z,14.14
2016-07-07T00:58:20.656Z,14.1
2016-07-07T00:59:20.688Z,14.03
2016-07-07T01:00:20.694Z,14
2016-07-07T01:01:21.366Z,14
2016-07-07T01:02:20.741Z,14.05
2016-07-07T01:03:20.762Z,14.08
2016-07-07T01:04:20.788Z,13.95
2016-07-07T01:05:20.794Z,13.93
2016-07-07T01:06:20.813Z,13.93
2016-07-07T01:07:20.833Z,13.86
2016-07-07T01:08:20.849Z,13.85
2016-07-07T01:09:20.870Z,13.79
2016-07-07T01:10:20.892Z,13.87
2016-07-07T01:11:20.926Z,13.81
2016-07-07T01:12:20.940Z,13.74
2016-07-07T01:13:20.949Z,13.74
2016-07-07T01:14:20.962Z,13.71
2016-07-07T01:15:21.002Z,13.74
2016-07-07T01:16:21.005Z,13.72
2016-07-07T01:17:21.016Z,13.7
2016-07-07T01:18:21.039Z,13.68
2016-07-07T01:19:21.674Z,13.71
2016-07-07T01:20:21.080Z,13.72
2016-07-07T01:21:21.080Z,13.54
2016-07-07T01:22:21.100Z,13.63
2016-07-07T01:23:21.113Z,13.62
2016-07-07T01:24:21.135Z,13.52
2016-07-07T01:25:21.164Z,13.53
2016-07-07T01:26:21.184Z,13.53
2016-07-07T01:27:21.195Z,13.54
2016-07-07T01:28:21.213Z,13.52
2016-07-07T01:29:21.241Z,13.44
2016-07-07T01:30:21.264Z,13.44
2016-07-07T01:31:21.269Z,13.38
2016-07-07T01:32:21.288Z,13.33
2016-07-07T01:33:21.278Z,13.33
2016-07-07T01:34:21.303Z,13.31
2016-07-07T01:35:21.347Z,13.27
2016-07-07T01:36:21.362Z,13.25
2016-07-07T01:37:21.372Z,13.16
2016-07-07T01:38:21.399Z,13.22
2016-07-07T01:39:21.412Z,13.23
2016-07-07T01:40:21.409Z,13.23
2016-07-07T01:41:21.441Z,13.22
2016-07-07T01:42:21.471Z,13.25
2016-07-07T01:43:21.486Z,13.23
2016-07-07T01:44:21.506Z,13.19
2016-07-07T01:45:21.505Z,13.18
2016-07-07T01:46:21.530Z,13.22
2016-07-07T01:47:21.538Z,13.16
2016-07-07T01:48:21.559Z,13.25
2016-07-07T01:49:21.577Z,13.16
2016-07-07T01:50:21.585Z,13.09
2016-07-07T01:51:21.597Z,13.11
2016-07-07T01:52:21.617Z,13.04
2016-07-07T01:53:21.647Z,13.13
2016-07-07T01:54:21.662Z,13.03
2016-07-07T01:55:21.678Z,13.13
2016-07-07T01:56:21.693Z,13.05
2016-07-07T01:57:21.715Z,12.97
2016-07-07T01:58:21.726Z,12.97
2016-07-07T01:59:21.741Z,13.01
2016-07-07T02:00:21.773Z,12.94
2016-07-07T02:01:21.777Z,12.86
2016-07-07T02:02:21.806Z,12.94
2016-07-07T02:03:21.820Z,12.9
2016-07-07T02:04:21.846Z,12.93
2016-07-07T02:05:21.852Z,12.8
2016-07-07T02:06:21.874Z,12.72
2016-07-07T02:07:21.890Z,12.64
2016-07-07T02:08:21.902Z,12.75
2016-07-07T02:09:21.915Z,12.68
2016-07-07T02:10:21.934Z,12.7
2016-07-07T02:11:21.959Z,12.73
2016-07-07T02:12:21.976Z,12.61
2016-07-07T02:13:21.992Z,12.54
2016-07-07T02:14:22.009Z,12.57
2016-07-07T02:15:22.019Z,12.54
2016-07-07T02:16:22.044Z,12.53
2016-07-07T02:17:22.052Z,12.47
2016-07-07T02:18:22.074Z,12.45
2016-07-07T02:19:22.099Z,12.42
2016-07-07T02:20:22.098Z,12.39
2016-07-07T02:21:22.132Z,12.36
2016-07-07T02:22:22.160Z,12.31
2016-07-07T02:23:22.177Z,12.28
2016-07-07T02:24:22.193Z,12.24
2016-07-07T02:25:22.196Z,12.29
2016-07-07T02:26:22.221Z,12.25
2016-07-07T02:27:22.249Z,12.22
2016-07-07T02:28:22.242Z,12.18
2016-07-07T02:29:22.278Z,12.21
2016-07-07T02:30:22.285Z,12.22
2016-07-07T02:31:22.300Z,12.25
2016-07-07T02:32:22.302Z,12.17
2016-07-07T02:33:22.350Z,12.04
2016-07-07T02:34:22.358Z,12.1
2016-07-07T02:35:22.368Z,12.09
2016-07-07T02:36:22.406Z,12.04
2016-07-07T02:37:22.405Z,12.03
2016-07-07T02:38:22.428Z,11.87
2016-07-07T02:39:22.426Z,11.99
2016-07-07T02:40:22.465Z,11.91
2016-07-07T02:41:22.484Z,11.94
2016-07-07T02:42:22.489Z,11.91
2016-07-07T02:43:22.514Z,12
2016-07-07T02:44:22.531Z,11.87
2016-07-07T02:45:22.532Z,11.86
2016-07-07T02:46:22.544Z,11.86
2016-07-07T02:47:22.566Z,11.75
2016-07-07T02:48:22.593Z,11.83
2016-07-07T02:49:22.609Z,11.84
2016-07-07T02:50:22.618Z,11.81
2016-07-07T02:51:22.634Z,11.84
2016-07-07T02:52:22.659Z,11.83
2016-07-07T02:53:22.672Z,11.81
2016-07-07T02:54:22.681Z,11.75
2016-07-07T02:55:22.715Z,11.86
2016-07-07T02:56:22.731Z,11.77
2016-07-07T02:57:22.754Z,11.75
2016-07-07T02:58:22.770Z,11.75
2016-07-07T02:59:22.783Z,11.78
2016-07-07T03:00:22.794Z,11.75
2016-07-07T03:01:22.821Z,11.75
2016-07-07T03:02:22.825Z,11.73
2016-07-07T03:03:22.853Z,11.72
2016-07-07T03:04:22.856Z,11.78
2016-07-07T03:05:22.887Z,11.66
2016-07-07T03:06:22.898Z,11.73
2016-07-07T03:07:22.911Z,11.66
2016-07-07T03:08:22.931Z,11.66
2016-07-07T03:09:22.932Z,11.69
2016-07-07T03:10:22.958Z,11.69
2016-07-07T03:11:22.979Z,11.68
2016-07-07T03:12:23.001Z,11.6
2016-07-07T03:13:23.010Z,11.59
2016-07-07T03:14:23.034Z,11.57
2016-07-07T03:15:23.042Z,11.68
2016-07-07T03:16:23.078Z,11.6
2016-07-07T03:17:23.088Z,11.68
2016-07-07T03:18:23.097Z,11.6
2016-07-07T03:19:23.100Z,11.63
2016-07-07T03:20:23.130Z,11.6
2016-07-07T03:21:23.127Z,11.59
2016-07-07T03:22:23.152Z,11.57
2016-07-07T03:23:23.163Z,11.54
2016-07-07T03:24:23.185Z,11.63
2016-07-07T03:25:23.216Z,11.6
2016-07-07T03:26:23.236Z,11.54
2016-07-07T03:27:23.246Z,11.57
2016-07-07T03:28:23.262Z,11.62
2016-07-07T03:29:23.276Z,11.59
2016-07-07T03:30:23.294Z,11.57
2016-07-07T03:31:23.304Z,11.59
2016-07-07T03:32:23.330Z,11.57
2016-07-07T03:33:23.343Z,11.59
2016-07-07T03:34:23.358Z,11.57
2016-07-07T03:35:23.371Z,11.6
2016-07-07T03:36:23.397Z,11.52
2016-07-07T03:37:23.395Z,11.63
2016-07-07T03:38:23.415Z,11.55
2016-07-07T03:39:23.448Z,11.55
2016-07-07T03:40:23.457Z,11.59
2016-07-07T03:41:23.459Z,11.5
2016-07-07T03:42:23.480Z,11.59
2016-07-07T03:43:23.503Z,11.6
2016-07-07T03:44:23.526Z,11.59
2016-07-07T03:45:23.527Z,11.57
2016-07-07T03:46:23.562Z,11.48
2016-07-07T03:47:23.570Z,11.59
2016-07-07T03:48:23.589Z,11.57
2016-07-07T03:49:23.619Z,11.62
2016-07-07T03:50:23.618Z,11.6
2016-07-07T03:51:23.631Z,11.55
2016-07-07T03:52:23.651Z,11.54
2016-07-07T03:53:23.669Z,11.57
2016-07-07T03:54:23.669Z,11.7
2016-07-07T03:55:23.706Z,11.77
2016-07-07T03:56:23.719Z,11.81
2016-07-07T03:57:23.730Z,11.78
2016-07-07T03:58:23.758Z,11.86
2016-07-07T03:59:23.772Z,11.9
2016-07-07T04:00:23.783Z,11.95
2016-07-07T04:01:23.786Z,12.1
2016-07-07T04:02:23.810Z,12.13
2016-07-07T04:03:23.830Z,12.27
2016-07-07T04:04:23.850Z,12.25
2016-07-07T04:05:23.872Z,12.28
2016-07-07T04:06:23.888Z,12.36
2016-07-07T04:07:23.900Z,12.46
2016-07-07T04:08:23.923Z,12.53
2016-07-07T04:09:23.927Z,12.62
2016-07-07T04:10:23.962Z,12.7
2016-07-07T04:11:23.953Z,12.78
2016-07-07T04:12:23.977Z,12.78
2016-07-07T04:13:24.001Z,12.93
2016-07-07T04:14:24.013Z,12.97
2016-07-07T04:15:24.040Z,13.05
2016-07-07T04:16:24.065Z,13.16
2016-07-07T04:17:24.071Z,13.31
2016-07-07T04:18:24.091Z,13.44
2016-07-07T04:19:24.116Z,13.38
2016-07-07T04:20:24.130Z,13.57
2016-07-07T04:21:24.128Z,13.63
2016-07-07T04:22:24.147Z,13.71
2016-07-07T04:23:24.170Z,13.63
2016-07-07T04:24:24.185Z,13.78
2016-07-07T04:25:24.206Z,13.74
2016-07-07T04:26:24.204Z,13.77
2016-07-07T04:27:24.238Z,13.85
2016-07-07T04:28:24.258Z,14
2016-07-07T04:29:24.263Z,13.99
2016-07-07T04:30:24.273Z,14.15
2016-07-07T04:31:24.302Z,14.17
2016-07-07T04:32:24.333Z,14.29
2016-07-07T04:33:24.344Z,14.32
2016-07-07T04:34:24.346Z,14.35
2016-07-07T04:35:24.395Z,14.4
2016-07-07T04:36:24.406Z,14.44
2016-07-07T04:37:24.427Z,14.59
2016-07-07T04:38:24.437Z,14.55
2016-07-07T04:39:24.463Z,14.59
2016-07-07T04:40:24.482Z,14.77
2016-07-07T04:41:24.510Z,14.79
2016-07-07T04:42:24.497Z,14.89
2016-07-07T04:43:24.523Z,15.09
2016-07-07T04:44:24.541Z,15.09
2016-07-07T04:45:24.573Z,15.11
2016-07-07T04:46:24.576Z,15.22
2016-07-07T04:47:24.601Z,15.24
2016-07-07T04:48:24.615Z,15.44
2016-07-07T04:49:24.652Z,15.54
2016-07-07T04:50:24.633Z,15.39
2016-07-07T04:51:24.659Z,15.43
2016-07-07T04:52:24.685Z,15.44
2016-07-07T04:53:24.710Z,15.46
2016-07-07T04:54:24.723Z,15.52
2016-07-07T04:55:24.740Z,15.65
2016-07-07T04:56:24.751Z,15.67
2016-07-07T04:57:24.790Z,15.68
2016-07-07T04:58:24.847Z,15.72
2016-07-07T04:59:24.845Z,15.7
2016-07-07T05:00:24.840Z,15.75
2016-07-07T05:01:24.844Z,15.72
2016-07-07T05:02:24.858Z,15.73
2016-07-07T05:03:24.884Z,15.77
2016-07-07T05:04:24.912Z,15.77
2016-07-07T05:05:24.934Z,15.75
2016-07-07T05:06:24.952Z,15.86
2016-07-07T05:07:24.961Z,15.82
2016-07-07T05:08:24.986Z,15.79
2016-07-07T05:09:25.011Z,15.86
2016-07-07T05:10:25.010Z,15.83
2016-07-07T05:11:25.046Z,16.01
2016-07-07T05:12:25.061Z,16.01
2016-07-07T05:13:25.063Z,16.15
2016-07-07T05:14:25.115Z,16.21
2016-07-07T05:15:25.120Z,16.23
2016-07-07T05:16:25.133Z,16.24
2016-07-07T05:17:25.141Z,16.16
2016-07-07T05:18:25.159Z,16.24
2016-07-07T05:19:25.192Z,16.35
2016-07-07T05:20:25.206Z,16.2
2016-07-07T05:21:25.232Z,16.21
2016-07-07T05:22:25.243Z,16.38
2016-07-07T05:23:25.270Z,16.32
2016-07-07T05:24:25.285Z,16.29
2016-07-07T05:25:25.303Z,16.32
2016-07-07T05:26:25.336Z,16.43
2016-07-07T05:27:25.353Z,16.51
2016-07-07T05:28:25.383Z,16.61
2016-07-07T05:29:25.387Z,16.51
2016-07-07T05:30:25.399Z,16.57
2016-07-07T05:31:25.438Z,16.61
2016-07-07T05:32:25.448Z,16.66
2016-07-07T05:33:25.459Z,16.53
2016-07-07T05:34:25.478Z,16.5
2016-07-07T05:35:25.490Z,16.6
2016-07-07T05:36:25.516Z,16.65
2016-07-07T05:37:25.547Z,16.69
2016-07-07T05:38:25.550Z,16.75
2016-07-07T05:39:25.576Z,16.78
2016-07-07T05:40:25.591Z,16.84
2016-07-07T05:41:25.616Z,16.69
2016-07-07T05:42:25.636Z,16.65
2016-07-07T05:43:25.644Z,16.68
2016-07-07T05:44:25.668Z,16.56
2016-07-07T05:45:25.706Z,16.6
2016-07-07T05:46:25.712Z,16.72
2016-07-07T05:47:25.720Z,16.74
2016-07-07T05:48:25.728Z,16.86
2016-07-07T05:49:25.770Z,16.76
2016-07-07T05:50:25.786Z,16.81
2016-07-07T05:51:25.807Z,16.91
2016-07-07T05:52:25.815Z,16.93
2016-07-07T05:53:25.833Z,17.02
2016-07-07T05:54:25.860Z,17.05
2016-07-07T05:55:25.893Z,17.05
2016-07-07T05:56:25.905Z,17.02
2016-07-07T05:57:25.918Z,16.97
2016-07-07T05:58:25.937Z,16.81
2016-07-07T05:59:25.954Z,16.76
2016-07-07T06:00:25.968Z,16.76
2016-07-07T06:01:25.975Z,16.69
2016-07-07T06:02:26.016Z,16.65
2016-07-07T06:03:26.033Z,16.58
2016-07-07T06:04:26.056Z,16.58
2016-07-07T06:05:26.062Z,16.64
2016-07-07T06:06:26.081Z,16.81
2016-07-07T06:07:26.118Z,16.89
2016-07-07T06:08:26.130Z,16.93
2016-07-07T06:09:26.143Z,16.96
2016-07-07T06:10:26.154Z,17.15
2016-07-07T06:11:26.187Z,17.02
2016-07-07T06:12:26.212Z,17.06
2016-07-07T06:13:26.232Z,17.15
2016-07-07T06:14:26.243Z,17.27
2016-07-07T06:15:26.271Z,17.46
2016-07-07T06:16:26.292Z,17.46
2016-07-07T06:17:26.314Z,17.65
2016-07-07T06:18:26.326Z,17.74
2016-07-07T06:19:26.339Z,17.71
2016-07-07T06:20:26.370Z,17.76
2016-07-07T06:21:26.393Z,17.76
2016-07-07T06:22:26.414Z,17.82
2016-07-07T06:23:26.429Z,17.89
2016-07-07T06:24:26.447Z,17.79
2016-07-07T06:25:26.459Z,17.83
2016-07-07T06:26:26.481Z,17.74
2016-07-07T06:27:26.512Z,17.63
2016-07-07T06:28:26.526Z,17.38
2016-07-07T06:29:26.543Z,17.15
2016-07-07T06:30:26.549Z,16.96
2016-07-07T06:31:26.565Z,16.94
2016-07-07T06:32:26.581Z,16.78
2016-07-07T06:33:26.611Z,16.57
2016-07-07T06:34:26.640Z,16.49
2016-07-07T06:35:26.658Z,16.43
2016-07-07T06:36:26.682Z,16.26
2016-07-07T06:37:26.693Z,16.01
2016-07-07T06:38:26.708Z,15.97
2016-07-07T06:39:26.735Z,15.91
2016-07-07T06:40:26.763Z,15.92
2016-07-07T06:41:26.751Z,16
2016-07-07T06:42:26.799Z,15.98
2016-07-07T06:43:26.817Z,16.2
2016-07-07T06:44:26.826Z,16.43
2016-07-07T06:45:26.864Z,16.61
2016-07-07T06:46:26.873Z,16.76
2016-07-07T06:47:26.877Z,16.99
2016-07-07T06:48:26.913Z,17.27
2016-07-07T06:49:26.921Z,17.49
2016-07-07T06:50:26.946Z,17.6
2016-07-07T06:51:26.951Z,17.68
2016-07-07T06:52:26.991Z,17.64
2016-07-07T06:53:27.008Z,17.76
2016-07-07T06:54:27.025Z,17.76
2016-07-07T06:55:27.024Z,17.87
2016-07-07T06:56:27.064Z,17.86
2016-07-07T06:57:27.076Z,17.78
2016-07-07T06:58:27.109Z,17.83
2016-07-07T06:59:27.127Z,17.68
2016-07-07T07:00:27.151Z,17.54
2016-07-07T07:01:27.156Z,17.49
2016-07-07T07:02:27.184Z,17.39
2016-07-07T07:03:27.198Z,17.16
2016-07-07T07:04:27.218Z,16.97
2016-07-07T07:05:27.245Z,16.78
2016-07-07T07:06:27.249Z,16.78
2016-07-07T07:07:27.279Z,16.86
2016-07-07T07:08:27.296Z,16.84
2016-07-07T07:09:27.314Z,16.83
2016-07-07T07:10:27.342Z,16.9
2016-07-07T07:11:27.353Z,17.04
2016-07-07T07:12:27.368Z,17.14
2016-07-07T07:13:27.385Z,17.08
2016-07-07T07:14:27.415Z,17.36
2016-07-07T07:15:27.431Z,17.51
2016-07-07T07:16:27.455Z,17.76
2016-07-07T07:17:27.451Z,17.83
2016-07-07T07:18:27.494Z,17.95
2016-07-07T07:19:27.491Z,17.97
2016-07-07T07:20:27.528Z,18.05
2016-07-07T07:21:27.549Z,18.18
2016-07-07T07:22:27.562Z,18.19
2016-07-07T07:23:27.577Z,18.19
2016-07-07T07:24:27.601Z,18.15
2016-07-07T07:25:27.635Z,18.11
2016-07-07T07:26:27.649Z,17.89
2016-07-07T07:27:27.668Z,17.65
2016-07-07T07:28:27.689Z,17.63
2016-07-07T07:29:27.700Z,17.67
2016-07-07T07:30:27.726Z,17.59
2016-07-07T07:31:27.748Z,17.63
2016-07-07T07:32:27.772Z,17.72
2016-07-07T07:33:27.792Z,17.76
2016-07-07T07:34:27.808Z,17.98
2016-07-07T07:35:27.830Z,17.98
2016-07-07T07:36:27.850Z,18.08
2016-07-07T07:37:27.863Z,18.31
2016-07-07T07:38:27.887Z,18.37
2016-07-07T07:39:27.942Z,18.47
2016-07-07T07:40:27.931Z,18.66
2016-07-07T07:41:27.935Z,18.77
2016-07-07T07:42:27.959Z,18.78
2016-07-07T07:43:27.965Z,18.81
2016-07-07T07:44:28.012Z,18.9
2016-07-07T07:45:28.060Z,18.99
2016-07-07T07:46:28.038Z,19.11
2016-07-07T07:47:28.070Z,19.08
2016-07-07T07:48:28.091Z,18.93
2016-07-07T07:49:28.111Z,18.92
2016-07-07T07:50:28.122Z,18.95
2016-07-07T07:51:28.151Z,19.02
2016-07-07T07:52:28.165Z,19.07
2016-07-07T07:53:28.195Z,19.14
2016-07-07T07:54:28.242Z,19.15
2016-07-07T07:55:28.216Z,19.14
2016-07-07T07:56:28.234Z,19.14
2016-07-07T07:57:28.264Z,19.37
2016-07-07T07:58:28.291Z,19.52
2016-07-07T07:59:28.313Z,19.66
2016-07-07T08:00:28.330Z,19.63
2016-07-07T08:01:28.344Z,19.7
2016-07-07T08:02:28.366Z,19.73
2016-07-07T08:03:28.397Z,19.7
2016-07-07T08:04:28.414Z,19.59
2016-07-07T08:05:28.429Z,19.36
2016-07-07T08:06:28.447Z,19.16
2016-07-07T08:07:28.471Z,18.9
2016-07-07T08:08:28.495Z,18.74
2016-07-07T08:09:28.519Z,18.8
2016-07-07T08:10:28.525Z,18.68
2016-07-07T08:11:28.557Z,18.73
2016-07-07T08:12:28.565Z,18.78
2016-07-07T08:13:28.591Z,18.81
2016-07-07T08:14:28.620Z,18.99
2016-07-07T08:15:28.623Z,19.11
2016-07-07T08:16:28.657Z,19.31
2016-07-07T08:17:28.675Z,19.36
2016-07-07T08:18:28.705Z,19.33
2016-07-07T08:19:28.720Z,19.39
2016-07-07T08:20:28.736Z,19.39
2016-07-07T08:21:28.749Z,19.3
2016-07-07T08:22:28.791Z,19.14
2016-07-07T08:23:28.800Z,19.19
2016-07-07T08:24:28.809Z,19.39
2016-07-07T08:25:28.839Z,19.36
2016-07-07T08:26:28.846Z,19.31
2016-07-07T08:27:28.867Z,19.44
2016-07-07T08:28:28.895Z,19.55
2016-07-07T08:29:28.906Z,19.64
2016-07-07T08:30:28.935Z,19.82
2016-07-07T08:31:28.948Z,19.85
2016-07-07T08:32:28.978Z,20.03
2016-07-07T08:33:28.986Z,20.18
2016-07-07T08:34:29.014Z,20.21
2016-07-07T08:35:29.030Z,20.14
2016-07-07T08:36:29.064Z,20.32
2016-07-07T08:37:29.086Z,20.16
2016-07-07T08:38:29.091Z,20.21
2016-07-07T08:39:29.120Z,20.34
2016-07-07T08:40:29.138Z,20.41
2016-07-07T08:41:29.180Z,20.55
2016-07-07T08:42:29.180Z,20.55
2016-07-07T08:43:29.193Z,20.55
2016-07-07T08:44:29.209Z,20.56
2016-07-07T08:45:29.239Z,20.56
2016-07-07T08:46:29.272Z,20.24
2016-07-07T08:47:29.284Z,20.19
2016-07-07T08:48:29.295Z,20.07
2016-07-07T08:49:29.334Z,19.96
2016-07-07T08:50:29.347Z,19.99
2016-07-07T08:51:29.368Z,20.11
2016-07-07T08:52:29.392Z,20.22
2016-07-07T08:53:29.422Z,20.21
2016-07-07T08:54:29.439Z,19.95
2016-07-07T08:55:29.455Z,19.73
2016-07-07T08:56:29.478Z,19.63
2016-07-07T08:57:29.492Z,19.64
2016-07-07T08:58:29.512Z,19.94
2016-07-07T08:59:29.536Z,19.92
2016-07-07T09:00:29.550Z,19.84
2016-07-07T09:01:29.588Z,19.71
2016-07-07T09:02:29.606Z,19.74
2016-07-07T09:03:29.619Z,19.7
2016-07-07T09:04:29.653Z,19.89
2016-07-07T09:05:29.656Z,19.92
2016-07-07T09:06:29.689Z,20.03
2016-07-07T09:07:29.712Z,20.18
2016-07-07T09:08:29.737Z,20.13
2016-07-07T09:09:29.756Z,20.29
2016-07-07T09:10:29.769Z,20.37
2016-07-07T09:11:29.787Z,20.39
2016-07-07T09:12:29.809Z,20.44
2016-07-07T09:13:29.818Z,20.41
2016-07-07T09:14:29.849Z,20.37
2016-07-07T09:15:29.879Z,20.34
2016-07-07T09:16:29.905Z,20.4
2016-07-07T09:17:29.910Z,20.34
2016-07-07T09:18:29.939Z,20.18
2016-07-07T09:19:29.954Z,20.06
2016-07-07T09:20:29.968Z,20.13
2016-07-07T09:21:29.979Z,20.31
2016-07-07T09:22:30.013Z,20.29
2016-07-07T09:23:30.038Z,20.48
2016-07-07T09:24:30.065Z,20.56
2016-07-07T09:25:30.138Z,20.65
2016-07-07T09:26:30.108Z,20.65
2016-07-07T09:27:30.106Z,20.65
2016-07-07T09:28:30.174Z,20.56
2016-07-07T09:29:30.207Z,20.6
2016-07-07T09:30:30.236Z,20.56
2016-07-07T09:31:30.226Z,20.66
2016-07-07T09:32:30.227Z,20.65
2016-07-07T09:33:30.247Z,20.72
2016-07-07T09:34:30.248Z,20.8
2016-07-07T09:35:30.300Z,20.85
2016-07-07T09:36:30.300Z,20.72
2016-07-07T09:37:30.328Z,20.77
2016-07-07T09:38:30.353Z,20.67
2016-07-07T09:39:30.363Z,20.7
2016-07-07T09:40:30.392Z,20.84
2016-07-07T09:41:30.400Z,20.84
2016-07-07T09:42:30.446Z,20.66
2016-07-07T09:43:30.458Z,20.59
2016-07-07T09:44:30.483Z,20.55
2016-07-07T09:45:30.501Z,20.52
2016-07-07T09:46:30.521Z,20.52
2016-07-07T09:47:30.552Z,20.39
2016-07-07T09:48:30.572Z,20.62
2016-07-07T09:49:30.591Z,20.66
2016-07-07T09:50:30.607Z,20.66
2016-07-07T09:51:30.632Z,20.62
2016-07-07T09:52:30.630Z,20.55
2016-07-07T09:53:30.671Z,20.51
2016-07-07T09:54:30.703Z,20.55
2016-07-07T09:55:30.715Z,20.56
2016-07-07T09:56:30.752Z,20.9
2016-07-07T09:57:30.747Z,20.97
2016-07-07T09:58:30.786Z,21.14
2016-07-07T09:59:30.781Z,21.3
2016-07-07T10:00:30.805Z,21.4
2016-07-07T10:01:30.850Z,21.45
2016-07-07T10:02:30.854Z,21.5
2016-07-07T10:03:30.870Z,21.54
2016-07-07T10:04:30.897Z,21.58
2016-07-07T10:05:30.905Z,21.55
2016-07-07T10:06:30.933Z,21.51
2016-07-07T10:07:30.965Z,21.48
2016-07-07T10:08:30.977Z,21.17
2016-07-07T10:09:31.008Z,21.05
2016-07-07T10:10:31.026Z,20.85
2016-07-07T10:11:31.046Z,20.84
2016-07-07T10:12:31.067Z,20.81
2016-07-07T10:13:31.077Z,20.78
2016-07-07T10:14:31.126Z,20.88
2016-07-07T10:15:31.134Z,21
2016-07-07T10:16:31.163Z,21.2
2016-07-07T10:17:31.164Z,21.45
2016-07-07T10:18:31.204Z,21.51
2016-07-07T10:19:31.230Z,21.24
2016-07-07T10:20:31.222Z,21.14
2016-07-07T10:21:31.269Z,21.25
2016-07-07T10:22:31.277Z,21.3
2016-07-07T10:23:31.307Z,21.37
2016-07-07T10:24:31.318Z,21.3
2016-07-07T10:25:31.353Z,21.4
2016-07-07T10:26:31.353Z,21.45
2016-07-07T10:27:31.399Z,21.69
2016-07-07T10:28:31.414Z,21.61
2016-07-07T10:29:31.436Z,21.61
2016-07-07T10:30:31.468Z,21.72
2016-07-07T10:31:31.488Z,21.82
2016-07-07T10:32:31.507Z,21.79
2016-07-07T10:33:31.515Z,21.77
2016-07-07T10:34:31.538Z,21.91
2016-07-07T10:35:31.564Z,22.07
2016-07-07T10:36:31.580Z,22.23
2016-07-07T10:37:31.594Z,22.32
2016-07-07T10:38:31.626Z,22.39
2016-07-07T10:39:31.634Z,22.2
2016-07-07T10:40:31.673Z,22.08
2016-07-07T10:41:31.705Z,22
2016-07-07T10:42:31.713Z,21.91
2016-07-07T10:43:31.727Z,21.75
2016-07-07T10:44:31.748Z,21.66
2016-07-07T10:45:31.753Z,21.61
2016-07-07T10:46:31.793Z,21.57
2016-07-07T10:47:31.810Z,21.57
2016-07-07T10:48:31.840Z,21.69
2016-07-07T10:49:31.864Z,21.82
2016-07-07T10:50:31.899Z,22.02
2016-07-07T10:51:31.902Z,22
2016-07-07T10:52:31.935Z,21.99
2016-07-07T10:53:31.959Z,22.11
2016-07-07T10:54:31.980Z,22.13
2016-07-07T10:55:32.010Z,21.98
2016-07-07T10:56:32.013Z,21.93
2016-07-07T10:57:32.045Z,21.82
2016-07-07T10:58:32.066Z,21.7
2016-07-07T10:59:32.090Z,21.77
2016-07-07T11:00:32.116Z,21.83
2016-07-07T11:01:32.132Z,22.07
2016-07-07T11:02:32.166Z,22.25
2016-07-07T11:03:32.172Z,22.23
2016-07-07T11:04:32.194Z,22.17
2016-07-07T11:05:32.832Z,22.17
2016-07-07T11:06:32.238Z,22.17
2016-07-07T11:07:32.259Z,22.2
2016-07-07T11:08:32.282Z,22.23
2016-07-07T11:09:32.307Z,22.07
2016-07-07T11:10:32.325Z,21.99
2016-07-07T11:11:32.330Z,21.95
2016-07-07T11:12:32.359Z,22.07
2016-07-07T11:13:32.388Z,22.08
2016-07-07T11:14:32.414Z,22.25
2016-07-07T11:15:32.431Z,22.3
2016-07-07T11:16:32.448Z,22.36
2016-07-07T11:17:32.474Z,22.2
2016-07-07T11:18:32.494Z,22.18
2016-07-07T11:19:32.517Z,22.22
2016-07-07T11:20:32.540Z,22.25
2016-07-07T11:21:32.575Z,22.43
2016-07-07T11:22:32.590Z,22.51
2016-07-07T11:23:32.601Z,22.43
2016-07-07T11:24:32.649Z,22.38
2016-07-07T11:25:32.656Z,22.5
2016-07-07T11:26:32.670Z,22.73
2016-07-07T11:27:32.695Z,22.73
2016-07-07T11:28:32.702Z,22.62
2016-07-07T11:29:32.741Z,22.66
2016-07-07T11:30:32.770Z,22.8
2016-07-07T11:31:32.781Z,22.85
2016-07-07T11:32:32.811Z,22.84
2016-07-07T11:33:32.832Z,22.59
2016-07-07T11:34:32.851Z,22.48
2016-07-07T11:35:32.855Z,22.59
2016-07-07T11:36:32.884Z,22.55
2016-07-07T11:37:32.904Z,22.48
2016-07-07T11:38:32.945Z,22.43
2016-07-07T11:39:32.948Z,22.45
2016-07-07T11:40:32.971Z,22.38
2016-07-07T11:41:33.002Z,22.41
2016-07-07T11:42:33.016Z,22.3
2016-07-07T11:43:33.045Z,22.36
2016-07-07T11:44:33.079Z,22.45
2016-07-07T11:45:33.091Z,22.54
2016-07-07T11:46:33.112Z,22.54
2016-07-07T11:47:33.149Z,22.65
2016-07-07T11:48:33.153Z,22.68
2016-07-07T11:49:33.178Z,22.75
2016-07-07T11:50:33.206Z,22.72
2016-07-07T11:51:33.231Z,22.68
2016-07-07T11:52:33.248Z,22.48
2016-07-07T11:53:33.269Z,22.45
2016-07-07T11:54:33.291Z,22.54
2016-07-07T11:55:33.320Z,22.75
2016-07-07T11:56:33.335Z,22.9
2016-07-07T11:57:33.351Z,23.02
2016-07-07T11:58:33.386Z,23.02
2016-07-07T11:59:33.395Z,23.06
2016-07-07T12:00:33.414Z,23.08
2016-07-07T12:01:33.447Z,23.28
2016-07-07T12:02:33.470Z,23.51
2016-07-07T12:03:33.487Z,23.36
2016-07-07T12:04:33.516Z,23.36
2016-07-07T12:05:33.532Z,23.44
2016-07-07T12:06:33.558Z,23.61
2016-07-07T12:07:33.578Z,23.78
2016-07-07T12:08:33.605Z,23.86
2016-07-07T12:09:33.657Z,23.83
2016-07-07T12:10:33.649Z,23.83
2016-07-07T12:11:33.664Z,23.74
2016-07-07T12:12:33.688Z,23.62
2016-07-07T12:13:33.719Z,23.58
2016-07-07T12:14:33.734Z,23.63
2016-07-07T12:15:33.758Z,23.5
2016-07-07T12:16:33.778Z,23.61
2016-07-07T12:17:33.812Z,23.84
2016-07-07T12:18:33.829Z,23.95
2016-07-07T12:19:34.047Z,23.98
2016-07-07T12:20:33.865Z,24.05
2016-07-07T12:21:33.882Z,23.91
2016-07-07T12:22:33.924Z,24.02
2016-07-07T12:23:33.921Z,23.88
2016-07-07T12:24:33.959Z,23.99
2016-07-07T12:25:33.975Z,23.95
2016-07-07T12:26:34.008Z,23.96
2016-07-07T12:27:34.019Z,23.93
2016-07-07T12:28:34.045Z,23.93
2016-07-07T12:29:34.086Z,23.91
2016-07-07T12:30:34.101Z,24.03
2016-07-07T12:31:34.120Z,24.13
2016-07-07T12:32:34.139Z,24.26
2016-07-07T12:33:34.171Z,24.48
2016-07-07T12:34:34.185Z,24.63
2016-07-07T12:35:34.228Z,24.65
2016-07-07T12:36:34.264Z,24.68
2016-07-07T12:37:34.245Z,24.73
2016-07-07T12:38:34.281Z,24.84
2016-07-07T12:39:34.308Z,24.96
2016-07-07T12:40:34.323Z,25.13
2016-07-07T12:41:34.340Z,25.33
2016-07-07T12:42:34.372Z,25.4
2016-07-07T12:43:34.396Z,25.41
2016-07-07T12:44:34.422Z,25.11
2016-07-07T12:45:34.440Z,24.99
2016-07-07T12:46:34.462Z,25.08
2016-07-07T12:47:34.480Z,25.29
2016-07-07T12:48:34.498Z,25.33
2016-07-07T12:49:34.538Z,25.41
2016-07-07T12:50:34.558Z,25.54
2016-07-07T12:51:34.514Z,25.63
2016-07-07T12:52:34.558Z,25.55
2016-07-07T12:53:34.571Z,25.59
2016-07-07T12:54:34.593Z,25.69
2016-07-07T12:55:34.622Z,25.66